createdAt,value
2019-05-30T00:00:17.013Z,5.57
2019-05-30T00:02:39.018Z,6.00
2019-05-30T00:05:07.564Z,7.00
2019-05-30T00:07:36.065Z,6.77
2019-05-30T00:10:08.301Z,7.00
2019-05-30T00:12:36.794Z,6.97
2019-05-30T00:15:06.981Z,7.40
2019-05-30T00:17:35.453Z,6.30
2019-05-30T00:20:06.135Z,5.70
2019-05-30T00:22:34.612Z,6.20
2019-05-30T00:25:04.345Z,5.50
2019-05-30T00:27:32.828Z,5.50
2019-05-30T00:30:01.506Z,6.37
2019-05-30T00:32:29.949Z,6.23
2019-05-30T00:34:59.594Z,5.10
2019-05-30T00:37:28.181Z,6.77
2019-05-30T00:39:57.767Z,5.95
2019-05-30T00:42:26.249Z,6.97
2019-05-30T00:44:55.816Z,6.90
2019-05-30T00:47:24.329Z,7.80
2019-05-30T00:49:52.833Z,7.55
2019-05-30T00:52:21.298Z,9.00
2019-05-30T00:54:49.792Z,7.58
2019-05-30T00:57:18.253Z,7.13
2019-05-30T00:59:46.754Z,8.33
2019-05-30T01:02:15.303Z,8.83
2019-05-30T01:04:43.823Z,8.83
2019-05-30T01:07:12.296Z,7.87
2019-05-30T01:09:40.778Z,8.73
2019-05-30T01:12:09.248Z,9.00
2019-05-30T01:14:37.755Z,8.08
2019-05-30T01:17:07.249Z,8.80
2019-05-30T01:19:35.929Z,9.10
2019-05-30T01:22:05.525Z,9.10
2019-05-30T01:24:34.062Z,9.45
2019-05-30T01:27:03.451Z,8.70
2019-05-30T01:29:31.930Z,8.10
2019-05-30T01:32:02.042Z,9.47
2019-05-30T01:34:31.015Z,9.23
2019-05-30T01:36:59.835Z,7.90
2019-05-30T01:39:28.501Z,8.13
2019-05-30T01:41:57.727Z,8.57
2019-05-30T01:44:26.257Z,8.00
2019-05-30T01:46:54.715Z,8.43
2019-05-30T01:49:23.210Z,8.38
2019-05-30T01:51:51.672Z,8.73
2019-05-30T01:54:20.179Z,9.20
2019-05-30T01:56:48.636Z,9.00
2019-05-30T01:59:17.103Z,8.60
2019-05-30T02:01:45.672Z,8.60
2019-05-30T02:04:14.151Z,8.75
2019-05-30T02:06:42.641Z,8.10
2019-05-30T02:09:11.732Z,9.40
2019-05-30T02:11:40.266Z,7.60
2019-05-30T02:14:09.917Z,8.60
2019-05-30T02:16:38.513Z,8.07
2019-05-30T02:19:07.957Z,8.30
2019-05-30T02:21:36.521Z,8.60
2019-05-30T02:24:05.946Z,9.25
2019-05-30T02:26:34.456Z,8.73
2019-05-30T02:29:04.107Z,8.38
2019-05-30T02:31:39.068Z,8.37
2019-05-30T02:34:02.999Z,8.70
2019-05-30T02:36:32.025Z,8.20
2019-05-30T02:39:00.881Z,8.45
2019-05-30T02:41:29.552Z,8.77
2019-05-30T02:43:58.023Z,8.85
2019-05-30T02:46:26.518Z,9.63
2019-05-30T02:48:59.396Z,8.58
2019-05-30T02:51:25.122Z,7.73
2019-05-30T02:53:53.593Z,8.58
2019-05-30T02:56:22.115Z,8.63
2019-05-30T02:58:50.562Z,9.20
2019-05-30T03:01:19.086Z,9.30
2019-05-30T03:03:47.530Z,8.35
2019-05-30T03:06:16.207Z,8.00
2019-05-30T03:08:44.679Z,7.87
2019-05-30T03:11:15.390Z,8.65
2019-05-30T03:13:43.622Z,8.80
2019-05-30T03:16:13.640Z,9.10
2019-05-30T03:18:42.196Z,9.50
2019-05-30T03:21:13.410Z,9.27
2019-05-30T03:23:40.929Z,7.45
2019-05-30T03:26:10.902Z,9.30
2019-05-30T03:28:39.542Z,9.98
2019-05-30T03:31:17.599Z,9.40
2019-05-30T03:33:42.595Z,8.80
2019-05-30T03:36:17.940Z,9.55
2019-05-30T03:38:39.391Z,9.50
2019-05-30T03:41:11.303Z,8.65
2019-05-30T03:43:38.266Z,9.88
2019-05-30T03:46:10.623Z,8.97
2019-05-30T03:48:41.248Z,8.35
2019-05-30T03:51:13.500Z,8.10
2019-05-30T03:53:41.959Z,8.53
2019-05-30T03:56:14.114Z,8.77
2019-05-30T03:58:48.524Z,7.83
2019-05-30T04:01:20.187Z,8.53
2019-05-30T04:04:00.912Z,9.33
2019-05-30T04:06:46.591Z,8.50
2019-05-30T04:09:22.386Z,8.70
2019-05-30T04:11:52.810Z,8.03
2019-05-30T04:14:23.981Z,8.05
2019-05-30T04:16:52.484Z,7.90
2019-05-30T04:19:20.942Z,8.38
2019-05-30T04:21:49.439Z,7.87
2019-05-30T04:24:19.606Z,7.90
2019-05-30T04:26:48.207Z,8.03
2019-05-30T04:29:18.714Z,7.72
2019-05-30T04:31:46.810Z,9.27
2019-05-30T04:34:16.845Z,8.10
2019-05-30T04:36:45.428Z,8.10
2019-05-30T04:39:15.116Z,7.53
2019-05-30T04:41:43.783Z,8.00
2019-05-30T04:44:13.833Z,8.35
2019-05-30T04:46:42.385Z,8.03
2019-05-30T04:49:12.367Z,7.70
2019-05-30T04:51:40.983Z,7.70
2019-05-30T04:54:10.435Z,7.78
2019-05-30T04:56:39.479Z,7.90
2019-05-30T04:59:07.983Z,7.53
2019-05-30T05:01:36.434Z,8.10
2019-05-30T05:04:05.013Z,6.95
2019-05-30T05:06:33.488Z,7.87
2019-05-30T05:09:01.990Z,7.35
2019-05-30T05:11:30.452Z,7.80
2019-05-30T05:13:58.981Z,7.55
2019-05-30T05:16:35.514Z,7.70
2019-05-30T05:18:57.602Z,7.08
2019-05-30T05:21:26.061Z,7.60
2019-05-30T05:23:54.558Z,7.30
2019-05-30T05:26:23.645Z,7.03
2019-05-30T05:28:52.125Z,8.05
2019-05-30T05:31:20.588Z,7.30
2019-05-30T05:33:56.755Z,7.10
2019-05-30T05:36:20.899Z,7.60
2019-05-30T05:38:49.437Z,8.05
2019-05-30T05:41:18.203Z,7.20
2019-05-30T05:43:46.769Z,6.95
2019-05-30T05:46:16.454Z,7.40
2019-05-30T05:48:45.013Z,7.60
2019-05-30T05:51:13.478Z,8.07
2019-05-30T05:53:41.984Z,7.58
2019-05-30T05:56:10.459Z,8.77
2019-05-30T05:58:38.941Z,6.70
2019-05-30T06:01:07.405Z,7.07
2019-05-30T06:03:35.903Z,8.00
2019-05-30T06:06:04.372Z,7.80
2019-05-30T06:08:32.870Z,8.15
2019-05-30T06:11:01.333Z,7.70
2019-05-30T06:13:29.837Z,8.70
2019-05-30T06:15:58.296Z,8.40
2019-05-30T06:18:26.883Z,13.25
2019-05-30T06:20:55.360Z,13.47
2019-05-30T06:23:23.896Z,9.03
2019-05-30T06:25:52.330Z,8.73
2019-05-30T06:28:21.966Z,7.40
2019-05-30T06:30:50.490Z,7.20
2019-05-30T06:33:18.987Z,7.10
2019-05-30T06:35:47.449Z,7.07
2019-05-30T06:38:15.944Z,7.42
2019-05-30T06:40:44.413Z,7.47
2019-05-30T06:43:12.902Z,7.40
2019-05-30T06:45:41.374Z,7.75
2019-05-30T06:48:09.864Z,8.20
2019-05-30T06:50:38.325Z,7.03
2019-05-30T06:53:06.898Z,7.47
2019-05-30T06:55:35.367Z,7.60
2019-05-30T06:58:03.833Z,7.57
2019-05-30T07:00:32.924Z,7.13
2019-05-30T07:03:01.531Z,7.53
2019-05-30T07:05:32.011Z,7.93
2019-05-30T07:08:00.137Z,6.70
2019-05-30T07:10:28.843Z,7.77
2019-05-30T07:12:57.328Z,6.50
2019-05-30T07:15:25.846Z,6.73
2019-05-30T07:17:54.305Z,8.00
2019-05-30T07:20:23.480Z,8.08
2019-05-30T07:22:52.121Z,6.03
2019-05-30T07:25:20.874Z,6.87
2019-05-30T07:27:49.332Z,7.10
2019-05-30T07:30:18.176Z,7.15
2019-05-30T07:32:46.625Z,7.00
2019-05-30T07:35:15.393Z,6.27
2019-05-30T07:37:46.516Z,6.67
2019-05-30T07:40:19.239Z,7.07
2019-05-30T07:42:44.884Z,6.40
2019-05-30T07:45:14.478Z,6.00
2019-05-30T07:47:43.710Z,5.60
2019-05-30T07:50:12.278Z,6.60
2019-05-30T07:52:40.742Z,5.47
2019-05-30T07:55:10.270Z,4.45
2019-05-30T07:57:41.195Z,5.10
2019-05-30T08:00:13.401Z,5.97
2019-05-30T08:02:41.858Z,5.50
2019-05-30T08:05:23.568Z,5.00
2019-05-30T08:07:40.694Z,4.20
2019-05-30T08:10:09.632Z,4.30
2019-05-30T08:12:38.449Z,4.67
2019-05-30T08:15:08.646Z,3.00
2019-05-30T08:17:37.877Z,3.73
2019-05-30T08:20:08.046Z,3.97
2019-05-30T08:22:36.530Z,3.10
2019-05-30T08:25:08.225Z,3.62
2019-05-30T08:27:36.770Z,4.60
2019-05-30T08:30:10.463Z,3.33
2019-05-30T08:32:39.308Z,2.73
2019-05-30T08:35:08.402Z,3.00
2019-05-30T08:37:37.310Z,2.83
2019-05-30T08:40:07.495Z,2.40
2019-05-30T08:42:35.961Z,2.70
2019-05-30T08:45:09.976Z,2.10
2019-05-30T08:47:38.174Z,2.20
2019-05-30T08:50:09.783Z,3.20
2019-05-30T08:52:38.675Z,2.67
2019-05-30T08:55:08.574Z,2.43
2019-05-30T08:57:37.107Z,2.30
2019-05-30T09:00:10.074Z,1.97
2019-05-30T09:02:38.902Z,2.50
2019-05-30T09:05:08.007Z,2.10
2019-05-30T09:07:36.615Z,1.93
2019-05-30T09:10:06.779Z,2.80
2019-05-30T09:12:36.405Z,1.87
2019-05-30T09:15:08.621Z,2.35
2019-05-30T09:17:38.713Z,3.30
2019-05-30T09:20:08.069Z,3.00
2019-05-30T09:22:37.967Z,2.47
2019-05-30T09:25:09.723Z,2.40
2019-05-30T09:27:39.381Z,2.70
2019-05-30T09:30:10.338Z,3.20
2019-05-30T09:32:39.947Z,2.80
2019-05-30T09:35:09.676Z,3.20
2019-05-30T09:37:38.697Z,3.17
2019-05-30T09:40:11.866Z,3.50
2019-05-30T09:42:41.239Z,2.53
2019-05-30T09:45:10.919Z,2.60
2019-05-30T09:47:41.300Z,2.60
2019-05-30T09:50:10.676Z,3.07
2019-05-30T09:52:39.190Z,3.13
2019-05-30T09:55:08.476Z,2.60
2019-05-30T09:57:36.968Z,2.40
2019-05-30T10:00:10.785Z,2.30
2019-05-30T10:02:39.283Z,1.93
2019-05-30T10:05:08.193Z,2.40
2019-05-30T10:07:36.754Z,2.97
2019-05-30T10:10:06.256Z,3.10
2019-05-30T10:12:34.744Z,2.23
2019-05-30T10:15:04.133Z,1.80
2019-05-30T10:17:32.642Z,2.73
2019-05-30T10:20:01.102Z,2.03
2019-05-30T10:22:29.582Z,2.43
2019-05-30T10:24:58.478Z,2.30
2019-05-30T10:27:27.860Z,1.77
2019-05-30T10:29:57.548Z,2.03
2019-05-30T10:32:26.180Z,2.27
2019-05-30T10:34:55.996Z,2.00
2019-05-30T10:37:24.736Z,2.27
2019-05-30T10:39:57.802Z,2.40
2019-05-30T10:42:24.803Z,2.20
2019-05-30T10:44:54.576Z,2.60
2019-05-30T10:47:23.180Z,2.83
2019-05-30T10:49:51.670Z,5.50
2019-05-30T10:52:20.220Z,4.30
2019-05-30T10:54:49.409Z,9.23
2019-05-30T10:57:18.009Z,3.20
2019-05-30T10:59:47.848Z,1.90
2019-05-30T11:02:16.586Z,1.80
2019-05-30T11:04:45.958Z,1.90
2019-05-30T11:07:53.240Z,1.80
2019-05-30T11:10:14.976Z,1.70
2019-05-30T11:12:43.470Z,3.00
2019-05-30T11:15:13.533Z,2.30
2019-05-30T11:17:42.108Z,3.83
2019-05-30T11:20:10.902Z,6.70
2019-05-30T11:22:39.363Z,4.53
2019-05-30T11:25:07.925Z,2.40
2019-05-30T11:27:36.448Z,2.53
2019-05-30T11:30:07.549Z,6.00
2019-05-30T11:32:36.016Z,8.10
2019-05-30T11:35:06.594Z,3.08
2019-05-30T11:37:35.057Z,1.93
2019-05-30T11:40:06.140Z,1.40
2019-05-30T11:42:34.599Z,1.30
2019-05-30T11:45:05.303Z,1.00
2019-05-30T11:47:33.758Z,1.00
2019-05-30T11:50:02.244Z,1.20
2019-05-30T11:52:30.713Z,1.23
2019-05-30T11:55:00.331Z,3.43
2019-05-30T11:57:28.868Z,3.87
2019-05-30T11:59:58.344Z,2.27
2019-05-30T12:02:26.818Z,1.77
2019-05-30T12:04:56.517Z,1.67
2019-05-30T12:07:35.730Z,1.40
2019-05-30T12:09:55.142Z,1.30
2019-05-30T12:12:23.681Z,1.03
2019-05-30T12:14:53.390Z,1.50
2019-05-30T12:17:21.964Z,1.00
2019-05-30T12:19:51.377Z,1.20
2019-05-30T12:22:19.935Z,0.97
2019-05-30T12:24:48.427Z,1.20
2019-05-30T12:27:16.887Z,1.03
2019-05-30T12:29:45.442Z,0.90
2019-05-30T12:32:13.904Z,1.00
2019-05-30T12:34:42.418Z,1.20
2019-05-30T12:37:10.867Z,1.60
2019-05-30T12:39:39.381Z,1.20
2019-05-30T12:42:07.847Z,1.23
2019-05-30T12:44:36.393Z,1.23
2019-05-30T12:47:04.929Z,1.40
2019-05-30T12:49:33.415Z,1.70
2019-05-30T12:52:03.065Z,1.30
2019-05-30T12:54:31.850Z,1.43
2019-05-30T12:57:00.659Z,1.07
2019-05-30T12:59:29.226Z,1.40
2019-05-30T13:01:58.874Z,1.70
2019-05-30T13:04:27.474Z,1.10
2019-05-30T13:06:57.571Z,1.03
2019-05-30T13:09:26.063Z,1.07
2019-05-30T13:11:54.524Z,1.10
2019-05-30T13:14:23.019Z,1.10
2019-05-30T13:16:51.557Z,1.20
2019-05-30T13:19:20.044Z,1.20
2019-05-30T13:21:48.508Z,1.47
2019-05-30T13:24:17.014Z,1.37
2019-05-30T13:26:45.505Z,1.10
2019-05-30T13:29:14.005Z,1.40
2019-05-30T13:31:42.488Z,1.37
2019-05-30T13:34:10.966Z,1.00
2019-05-30T13:36:39.458Z,1.30
2019-05-30T13:39:08.192Z,1.40
2019-05-30T13:41:37.812Z,0.97
2019-05-30T13:44:08.131Z,1.17
2019-05-30T13:46:36.525Z,1.00
2019-05-30T13:49:05.161Z,1.20
2019-05-30T13:51:33.744Z,4.50
2019-05-30T13:54:03.067Z,2.70
2019-05-30T13:56:31.598Z,1.40
2019-05-30T13:59:00.070Z,1.90
2019-05-30T14:01:28.636Z,1.60
2019-05-30T14:03:57.100Z,1.60
2019-05-30T14:06:25.587Z,1.70
2019-05-30T14:08:54.041Z,1.83
2019-05-30T14:11:22.539Z,2.50
2019-05-30T14:13:51.072Z,1.40
2019-05-30T14:16:19.637Z,1.53
2019-05-30T14:18:48.180Z,1.87
2019-05-30T14:21:16.739Z,1.57
2019-05-30T14:23:45.192Z,1.60
2019-05-30T14:26:13.714Z,2.40
2019-05-30T14:28:42.170Z,1.97
2019-05-30T14:31:11.988Z,1.60
2019-05-30T14:33:40.773Z,1.77
2019-05-30T14:36:11.348Z,1.67
2019-05-30T14:38:39.389Z,1.90
2019-05-30T14:41:08.888Z,1.50
2019-05-30T14:43:37.337Z,1.43
2019-05-30T14:46:06.291Z,2.10
2019-05-30T14:48:34.809Z,7.40
2019-05-30T14:51:04.501Z,5.13
2019-05-30T14:53:32.962Z,2.00
2019-05-30T14:56:01.454Z,1.70
2019-05-30T14:58:29.914Z,2.20
2019-05-30T15:00:58.434Z,1.50
2019-05-30T15:03:26.878Z,1.40
2019-05-30T15:05:55.372Z,1.80
2019-05-30T15:08:23.850Z,1.37
2019-05-30T15:10:52.345Z,1.90
2019-05-30T15:13:20.814Z,1.33
2019-05-30T15:15:49.327Z,2.13
2019-05-30T15:18:17.791Z,2.10
2019-05-30T15:20:46.253Z,2.03
2019-05-30T15:23:15.762Z,2.00
2019-05-30T15:25:44.240Z,1.97
2019-05-30T15:28:12.742Z,1.73
2019-05-30T15:30:41.207Z,1.80
2019-05-30T15:33:10.349Z,1.90
2019-05-30T15:35:38.965Z,1.97
2019-05-30T15:38:08.674Z,2.20
2019-05-30T15:40:37.228Z,2.10
2019-05-30T15:43:05.726Z,1.83
2019-05-30T15:45:34.190Z,2.07
2019-05-30T15:48:02.689Z,1.90
2019-05-30T15:50:31.249Z,2.20
2019-05-30T15:52:59.729Z,2.20
2019-05-30T15:55:28.194Z,2.00
2019-05-30T15:57:56.687Z,1.93
2019-05-30T16:00:25.242Z,2.00
2019-05-30T16:02:53.727Z,1.93
2019-05-30T16:05:22.194Z,1.77
2019-05-30T16:07:50.683Z,2.10
2019-05-30T16:10:19.222Z,2.20
2019-05-30T16:12:47.728Z,1.87
2019-05-30T16:15:17.494Z,2.07
2019-05-30T16:17:46.145Z,1.53
2019-05-30T16:20:15.960Z,2.10
2019-05-30T16:22:44.452Z,1.60
2019-05-30T16:25:13.782Z,1.63
2019-05-30T16:27:42.341Z,1.57
2019-05-30T16:30:11.478Z,1.60
2019-05-30T16:32:40.162Z,1.63
2019-05-30T16:35:08.773Z,1.33
2019-05-30T16:37:37.258Z,1.37
2019-05-30T16:40:07.885Z,1.57
2019-05-30T16:42:36.380Z,1.47
2019-05-30T16:45:07.745Z,1.35
2019-05-30T16:47:36.186Z,1.40
2019-05-30T16:50:10.984Z,1.30
2019-05-30T16:52:39.519Z,1.97
2019-05-30T16:55:08.490Z,2.10
2019-05-30T16:57:37.039Z,1.83
2019-05-30T17:00:10.047Z,1.50
2019-05-30T17:02:38.543Z,1.43
2019-05-30T17:05:07.244Z,1.40
2019-05-30T17:07:35.697Z,1.70
2019-05-30T17:10:21.411Z,1.60
2019-05-30T17:12:38.486Z,1.77
2019-05-30T17:15:08.187Z,2.40
2019-05-30T17:17:36.717Z,1.83
2019-05-30T17:20:11.876Z,1.20
2019-05-30T17:22:40.343Z,1.90
2019-05-30T17:25:10.380Z,1.00
2019-05-30T17:27:38.843Z,1.80
2019-05-30T17:30:10.170Z,1.27
2019-05-30T17:32:38.635Z,1.40
2019-05-30T17:35:11.027Z,1.07
2019-05-30T17:37:39.493Z,1.23
2019-05-30T17:40:10.791Z,0.80
2019-05-30T17:42:39.454Z,1.20
2019-05-30T17:45:09.676Z,0.90
2019-05-30T17:47:38.301Z,1.10
2019-05-30T17:50:08.038Z,1.10
2019-05-30T17:52:36.503Z,1.33
2019-05-30T17:55:06.689Z,1.37
2019-05-30T17:57:35.155Z,0.90
2019-05-30T18:00:06.166Z,1.10
2019-05-30T18:02:34.684Z,1.13
2019-05-30T18:05:03.608Z,1.10
2019-05-30T18:07:32.069Z,1.40
2019-05-30T18:10:00.553Z,1.43
2019-05-30T18:12:29.127Z,1.07
2019-05-30T18:14:57.620Z,1.13
2019-05-30T18:17:27.148Z,1.10
2019-05-30T18:19:55.671Z,0.90
2019-05-30T18:22:25.468Z,1.10
2019-05-30T18:24:54.241Z,0.93
2019-05-30T18:27:23.892Z,1.13
2019-05-30T18:29:52.474Z,1.00
2019-05-30T18:32:21.965Z,1.17
2019-05-30T18:34:50.434Z,0.90
2019-05-30T18:37:18.963Z,1.00
2019-05-30T18:39:47.529Z,1.07
2019-05-30T18:42:15.994Z,1.10
2019-05-30T18:44:44.478Z,0.90
2019-05-30T18:47:12.938Z,1.27
2019-05-30T18:49:41.436Z,1.07
2019-05-30T18:52:09.886Z,1.00
2019-05-30T18:54:38.387Z,1.60
2019-05-30T18:57:06.891Z,1.20
2019-05-30T18:59:35.382Z,1.10
2019-05-30T19:02:03.914Z,0.70
2019-05-30T19:04:33.569Z,1.03
2019-05-30T19:07:02.082Z,1.20
2019-05-30T19:09:31.889Z,1.30
2019-05-30T19:12:00.700Z,1.27
2019-05-30T19:14:31.296Z,1.00
2019-05-30T19:16:59.295Z,1.10
2019-05-30T19:19:27.793Z,1.00
2019-05-30T19:21:56.255Z,1.17
2019-05-30T19:24:25.972Z,1.27
2019-05-30T19:26:54.454Z,1.07
2019-05-30T19:29:22.946Z,0.80
2019-05-30T19:31:51.409Z,1.20
2019-05-30T19:34:19.871Z,1.10
2019-05-30T19:36:48.361Z,1.10
2019-05-30T19:39:16.822Z,1.33
2019-05-30T19:41:54.019Z,1.20
2019-05-30T19:44:15.493Z,1.23
2019-05-30T19:46:43.980Z,1.00
2019-05-30T19:49:12.436Z,1.40
2019-05-30T19:51:40.926Z,1.10
2019-05-30T19:54:09.390Z,1.40
2019-05-30T19:56:40.840Z,1.80
2019-05-30T19:59:07.978Z,1.80
2019-05-30T20:01:36.506Z,2.17
2019-05-30T20:04:04.961Z,1.53
2019-05-30T20:06:34.509Z,1.93
2019-05-30T20:09:03.391Z,1.80
2019-05-30T20:11:33.131Z,1.50
2019-05-30T20:14:01.644Z,1.40
2019-05-30T20:16:31.330Z,1.67
2019-05-30T20:18:59.823Z,1.60
2019-05-30T20:21:28.386Z,1.90
2019-05-30T20:23:59.399Z,1.57
2019-05-30T20:26:26.982Z,1.63
2019-05-30T20:28:55.445Z,1.83
2019-05-30T20:31:23.954Z,1.60
2019-05-30T20:33:52.405Z,1.77
2019-05-30T20:36:20.891Z,2.17
2019-05-30T20:38:49.356Z,1.93
2019-05-30T20:41:17.856Z,1.60
2019-05-30T20:43:47.414Z,1.50
2019-05-30T20:46:23.119Z,1.40
2019-05-30T20:48:46.026Z,1.60
2019-05-30T20:51:21.271Z,1.52
2019-05-30T20:53:44.624Z,1.40
2019-05-30T20:56:13.121Z,1.70
2019-05-30T20:58:41.834Z,1.40
2019-05-30T21:01:10.368Z,2.03
2019-05-30T21:03:39.628Z,1.50
2019-05-30T21:06:08.170Z,1.77
2019-05-30T21:08:37.308Z,1.60
2019-05-30T21:11:05.772Z,1.40
2019-05-30T21:13:36.189Z,1.33
2019-05-30T21:16:04.739Z,2.53
2019-05-30T21:18:35.635Z,1.57
2019-05-30T21:21:04.166Z,1.82
2019-05-30T21:23:32.656Z,1.50
2019-05-30T21:26:01.137Z,1.50
2019-05-30T21:28:29.610Z,1.50
2019-05-30T21:30:58.075Z,1.37
2019-05-30T21:33:26.565Z,1.60
2019-05-30T21:35:55.041Z,2.27
2019-05-30T21:38:23.533Z,1.87
2019-05-30T21:40:51.988Z,2.00
2019-05-30T21:43:20.561Z,2.03
2019-05-30T21:45:49.095Z,2.30
2019-05-30T21:48:17.506Z,2.10
2019-05-30T21:50:47.548Z,1.87
2019-05-30T21:53:16.102Z,1.83
2019-05-30T21:55:44.559Z,1.97
2019-05-30T21:58:13.054Z,2.10
2019-05-30T22:00:51.053Z,1.77
2019-05-30T22:03:19.576Z,1.87
2019-05-30T22:05:49.538Z,2.10
2019-05-30T22:08:18.217Z,2.20
2019-05-30T22:10:47.665Z,2.20
2019-05-30T22:13:16.171Z,2.20
2019-05-30T22:15:45.974Z,2.03
2019-05-30T22:18:14.527Z,2.10
2019-05-30T22:20:43.795Z,2.07
2019-05-30T22:23:12.395Z,1.83
2019-05-30T22:25:42.054Z,3.00
2019-05-30T22:28:10.639Z,2.40
2019-05-30T22:30:39.092Z,2.20
2019-05-30T22:33:07.581Z,2.47
2019-05-30T22:35:36.057Z,1.97
2019-05-30T22:38:04.542Z,2.10
2019-05-30T22:40:33.006Z,2.70
2019-05-30T22:43:01.563Z,2.40
2019-05-30T22:45:30.014Z,2.17
2019-05-30T22:47:58.503Z,2.17
2019-05-30T22:50:26.965Z,2.45
2019-05-30T22:52:55.456Z,2.43
2019-05-30T22:55:23.921Z,2.47
2019-05-30T22:57:52.578Z,1.80
2019-05-30T23:00:21.071Z,1.50
2019-05-30T23:02:49.905Z,2.10
2019-05-30T23:05:18.420Z,2.00
2019-05-30T23:07:47.369Z,2.07
2019-05-30T23:10:16.056Z,1.50
2019-05-30T23:12:45.789Z,2.20
2019-05-30T23:15:15.845Z,2.00
2019-05-30T23:17:44.310Z,2.07
2019-05-30T23:20:12.980Z,1.97
2019-05-30T23:22:41.442Z,2.47
2019-05-30T23:25:10.033Z,1.83
2019-05-30T23:27:38.485Z,2.47
2019-05-30T23:30:08.004Z,2.50
2019-05-30T23:32:36.546Z,2.40
2019-05-30T23:35:05.815Z,2.45
2019-05-30T23:37:34.275Z,2.00
2019-05-30T23:40:02.767Z,2.00
2019-05-30T23:42:31.221Z,2.00
2019-05-30T23:44:59.704Z,2.27
2019-05-30T23:47:28.268Z,2.43
2019-05-30T23:49:58.099Z,1.97
2019-05-30T23:52:26.638Z,1.60
2019-05-30T23:54:56.235Z,1.90
2019-05-30T23:57:24.803Z,1.90
2019-05-30T23:59:54.637Z,2.17
